首页
METAR-TAF:

METAR-TAF

机场 :

马六甲国际机场

马六甲, 马来西亚

纬度: 02-16N, 经度: 102-15E, 海拔: 11米

当前天气观测

该预报发布于1小时和13分钟前的12:00 UTC
风速3节,风向西北,在西转西南北转东北之间变化
温度 28°C
湿度 84%
气压 1010 hPa
能见度10公里或以上
少量云层高于2800英尺

METAR: WMKM 171200Z 32003KT 250V030 9999 FEW028 28/25 Q1010

时间: 21:13 (13:13 UTC)

预报

该预报发布于2小时和13分钟前的11:00 UTC
预报有效从17日的 12点(UTC)到 18日的 12点(UTC)
风速5节,风向西转西南
能见度10公里或以上
少量云层高于2600英尺
几率 30% :
短暂存在
从 17日的 22点(UTC)到 18日的 02点(UTC)
能見度: 5000
少量云层高于1700英尺, 积雨云.
雷暴, 雨,

TAF: WMKM 171100Z 1712/1812 25005KT 9999 FEW026 PROB30 TEMPO 1722/1802 5000 TSRA FEW017CB

超过4000个机场的气象观测和天气预报(METAR&TAF报告)。

可查询的气象台以黄色和红色小点在地图上表示。

将鼠标移到小点上方,可查看气象台名称。

然后点击查看天气观测和预报。

如需切换地图:点击带黑十字的绿色按钮放大地图;点击带横线的绿色按钮缩小地图;或者点击绿色箭头查看邻近地区的地图。


METAR-TAF: